< < Back
Terminal Aerodrome Forecast


Current Version              Previous Versions:   1  2  3  4  5  6  7  8  9  

Terminal Aerodrome Forecast

249
FTUS42 KGSP 262004 AAB
TAFHKY
TAF AMD
KHKY 262004Z 2620/2718 03007KT P6SM OVC012
     FM270000 04005KT P6SM SCT010 BKN040
     FM270400 36003KT P6SM SCT070
     FM271400 32007KT P6SM FEW250=

Latest METAR

263
SAUS70 KWBC 270700 RRE
MTRHKY
METAR KHKY 270653Z AUTO 00000KT 10SM OVC080 10/08 A2978 RMK AO2 SLP070
T01000083


USA.gov is the U.S. government's official web portal to all federal, state and local government web resources and services.